createdAt,value
2022-09-15T20:03:44.829Z,57.58
2022-09-15T20:06:17.755Z,57.67
2022-09-15T20:08:52.708Z,57.71
2022-09-15T20:11:26.677Z,57.85
2022-09-15T20:13:59.780Z,57.79
2022-09-15T20:16:32.915Z,57.97
2022-09-15T20:19:07.306Z,58.47
2022-09-15T20:21:56.860Z,58.80
2022-09-15T20:24:29.962Z,58.63
2022-09-15T20:27:03.071Z,59.10
2022-09-15T20:29:35.819Z,59.08
2022-09-15T20:32:08.656Z,58.85
2022-09-15T20:34:43.104Z,59.04
2022-09-15T20:37:16.003Z,59.10
2022-09-15T20:39:51.298Z,58.92
2022-09-15T20:42:24.373Z,59.09
2022-09-15T20:44:57.453Z,59.00
2022-09-15T20:47:30.305Z,59.11
2022-09-15T20:50:04.703Z,59.08
2022-09-15T20:52:38.516Z,59.14
2022-09-15T20:55:20.337Z,59.12
2022-09-15T20:57:54.111Z,58.84
2022-09-15T21:00:28.617Z,58.98
2022-09-15T21:03:04.631Z,59.09
2022-09-15T21:05:37.663Z,59.09
2022-09-15T21:08:11.080Z,59.14
2022-09-15T21:10:45.136Z,59.29
2022-09-15T21:13:19.090Z,59.15
2022-09-15T21:15:57.034Z,59.22
2022-09-15T21:18:33.898Z,59.27
2022-09-15T21:21:08.847Z,59.36
2022-09-15T21:23:43.489Z,59.34
2022-09-15T21:26:17.247Z,59.28
2022-09-15T21:28:50.488Z,59.25
2022-09-15T21:31:25.623Z,59.32
2022-09-15T21:33:59.228Z,59.47
2022-09-15T21:36:32.597Z,59.38
2022-09-15T21:39:05.367Z,59.37
2022-09-15T21:41:38.323Z,59.79
2022-09-15T21:44:12.218Z,59.99
2022-09-15T21:46:47.027Z,59.77
2022-09-15T21:49:20.405Z,60.42
2022-09-15T21:51:53.166Z,61.51
2022-09-15T21:54:26.549Z,61.92
2022-09-15T21:57:00.031Z,62.00
2022-09-15T21:59:33.052Z,61.97
2022-09-15T22:02:06.236Z,62.03
2022-09-15T22:04:39.652Z,61.83
2022-09-15T22:07:15.438Z,61.78
2022-09-15T22:09:48.423Z,61.51
2022-09-15T22:12:21.295Z,61.57
2022-09-15T22:14:54.115Z,61.73
2022-09-15T22:17:27.152Z,61.76
2022-09-15T22:20:01.190Z,61.46
2022-09-15T22:22:34.176Z,61.43
2022-09-15T22:25:08.007Z,61.43
2022-09-15T22:27:40.992Z,61.45
2022-09-15T22:30:13.820Z,61.30
2022-09-15T22:32:46.681Z,60.96
2022-09-15T22:35:19.454Z,61.00
2022-09-15T22:37:52.371Z,61.00
2022-09-15T22:40:25.201Z,61.05
2022-09-15T22:42:57.861Z,61.01
2022-09-15T22:45:30.692Z,60.84
2022-09-15T22:48:03.669Z,60.81
2022-09-15T22:50:36.534Z,60.72
2022-09-15T22:53:09.402Z,60.72
2022-09-15T22:55:42.768Z,60.72
2022-09-15T22:58:15.792Z,60.49
2022-09-15T23:00:49.247Z,60.49
2022-09-15T23:03:21.954Z,60.44
2022-09-15T23:05:59.261Z,60.33
2022-09-15T23:08:33.245Z,60.36
2022-09-15T23:11:13.696Z,60.23
2022-09-15T23:13:46.627Z,60.18
2022-09-15T23:16:21.290Z,60.00
2022-09-15T23:18:54.588Z,60.05
2022-09-15T23:21:28.199Z,60.24
2022-09-15T23:24:01.456Z,59.94
2022-09-15T23:26:34.393Z,60.14
2022-09-15T23:29:07.356Z,60.01
2022-09-15T23:31:40.237Z,59.91
2022-09-15T23:34:13.138Z,59.97
2022-09-15T23:36:45.926Z,59.89
2022-09-15T23:39:19.039Z,59.86
2022-09-15T23:41:51.857Z,59.91
2022-09-15T23:44:24.710Z,59.64
2022-09-15T23:46:57.583Z,59.63
2022-09-15T23:49:30.724Z,59.51
2022-09-15T23:52:03.729Z,59.47
2022-09-15T23:54:36.750Z,59.54
2022-09-15T23:57:11.644Z,59.54
2022-09-15T23:59:44.377Z,59.50
